sensor_id;sensor_type;location;lat;lon;timestamp;pressure;altitude;pressure_sealevel;temperature;humidity
13486;BME280;6815;59.336;17.998;2022-07-15T00:00:14;99716.19;;;13.37;82.03
13486;BME280;6815;59.336;17.998;2022-07-15T00:02:40;99737.59;;;13.33;82.18
13486;BME280;6815;59.336;17.998;2022-07-15T00:05:07;99768.00;;;13.45;82.76
13486;BME280;6815;59.336;17.998;2022-07-15T00:07:34;99766.19;;;13.45;83.22
13486;BME280;6815;59.336;17.998;2022-07-15T00:10:00;99733.03;;;13.14;83.93
13486;BME280;6815;59.336;17.998;2022-07-15T00:12:43;99743.88;;;13.30;83.69
13486;BME280;6815;59.336;17.998;2022-07-15T00:15:10;99769.75;;;13.22;84.57
13486;BME280;6815;59.336;17.998;2022-07-15T00:17:36;99760.47;;;13.34;83.96
13486;BME280;6815;59.336;17.998;2022-07-15T00:20:03;99722.59;;;13.10;84.01
13486;BME280;6815;59.336;17.998;2022-07-15T00:22:28;99784.03;;;13.41;84.01
13486;BME280;6815;59.336;17.998;2022-07-15T00:24:54;99737.09;;;13.23;83.48
13486;BME280;6815;59.336;17.998;2022-07-15T00:27:19;99782.28;;;13.18;84.37
13486;BME280;6815;59.336;17.998;2022-07-15T00:29:45;99769.78;;;13.00;85.35
13486;BME280;6815;59.336;17.998;2022-07-15T00:32:12;99771.09;;;13.12;85.86
13486;BME280;6815;59.336;17.998;2022-07-15T00:34:37;99785.25;;;13.11;85.65
13486;BME280;6815;59.336;17.998;2022-07-15T00:37:03;99775.91;;;13.02;87.24
13486;BME280;6815;59.336;17.998;2022-07-15T00:39:30;99795.78;;;13.34;85.75
13486;BME280;6815;59.336;17.998;2022-07-15T00:41:56;99771.41;;;13.26;85.07
13486;BME280;6815;59.336;17.998;2022-07-15T00:44:21;99767.47;;;12.92;86.56
13486;BME280;6815;59.336;17.998;2022-07-15T00:46:47;99786.53;;;13.23;85.34
13486;BME280;6815;59.336;17.998;2022-07-15T00:49:13;99771.69;;;13.18;84.81
13486;BME280;6815;59.336;17.998;2022-07-15T00:51:44;99770.66;;;13.23;84.14
13486;BME280;6815;59.336;17.998;2022-07-15T00:54:12;99769.25;;;12.70;86.24
13486;BME280;6815;59.336;17.998;2022-07-15T00:56:52;99796.59;;;12.92;85.06
13486;BME280;6815;59.336;17.998;2022-07-15T00:59:21;99780.47;;;12.77;85.72
13486;BME280;6815;59.336;17.998;2022-07-15T01:01:47;99758.84;;;12.65;85.09
13486;BME280;6815;59.336;17.998;2022-07-15T01:04:13;99762.97;;;12.50;85.79
13486;BME280;6815;59.336;17.998;2022-07-15T01:06:40;99781.63;;;12.69;84.80
13486;BME280;6815;59.336;17.998;2022-07-15T01:09:05;99792.41;;;12.87;84.68
13486;BME280;6815;59.336;17.998;2022-07-15T01:11:31;99793.50;;;12.81;84.20
13486;BME280;6815;59.336;17.998;2022-07-15T01:13:58;99793.94;;;12.70;84.01
13486;BME280;6815;59.336;17.998;2022-07-15T01:16:25;99773.56;;;12.72;82.52
13486;BME280;6815;59.336;17.998;2022-07-15T01:18:50;99803.19;;;12.59;83.20
13486;BME280;6815;59.336;17.998;2022-07-15T01:21:16;99795.22;;;12.37;84.21
13486;BME280;6815;59.336;17.998;2022-07-15T01:23:42;99722.03;;;11.90;84.13
13486;BME280;6815;59.336;17.998;2022-07-15T01:26:11;99765.72;;;12.47;82.50
13486;BME280;6815;59.336;17.998;2022-07-15T01:28:37;99796.44;;;12.52;82.70
13486;BME280;6815;59.336;17.998;2022-07-15T01:31:03;99776.38;;;12.22;82.61
13486;BME280;6815;59.336;17.998;2022-07-15T01:33:30;99803.91;;;12.40;82.45
13486;BME280;6815;59.336;17.998;2022-07-15T01:35:57;99802.81;;;12.46;82.76
13486;BME280;6815;59.336;17.998;2022-07-15T01:38:23;99794.88;;;12.22;82.52
13486;BME280;6815;59.336;17.998;2022-07-15T01:40:48;99791.66;;;12.14;83.42
13486;BME280;6815;59.336;17.998;2022-07-15T01:43:13;99799.56;;;12.38;82.55
13486;BME280;6815;59.336;17.998;2022-07-15T01:45:43;99798.66;;;11.92;83.80
13486;BME280;6815;59.336;17.998;2022-07-15T01:48:09;99809.72;;;12.26;83.27
13486;BME280;6815;59.336;17.998;2022-07-15T01:50:56;99814.31;;;12.45;82.73
13486;BME280;6815;59.336;17.998;2022-07-15T01:53:21;99801.47;;;12.34;83.12
13486;BME280;6815;59.336;17.998;2022-07-15T01:55:47;99812.50;;;12.22;83.78
13486;BME280;6815;59.336;17.998;2022-07-15T01:58:12;99804.75;;;12.17;83.49
13486;BME280;6815;59.336;17.998;2022-07-15T02:00:37;99799.25;;;12.23;83.61
13486;BME280;6815;59.336;17.998;2022-07-15T02:03:03;99806.53;;;12.17;83.86
13486;BME280;6815;59.336;17.998;2022-07-15T02:05:28;99808.44;;;12.13;82.52
13486;BME280;6815;59.336;17.998;2022-07-15T02:07:56;99795.38;;;12.09;83.22
13486;BME280;6815;59.336;17.998;2022-07-15T02:10:23;99804.94;;;12.13;83.20
13486;BME280;6815;59.336;17.998;2022-07-15T02:12:49;99811.53;;;12.24;82.28
13486;BME280;6815;59.336;17.998;2022-07-15T02:15:14;99802.28;;;12.36;81.81
13486;BME280;6815;59.336;17.998;2022-07-15T02:17:39;99799.06;;;12.28;82.18
13486;BME280;6815;59.336;17.998;2022-07-15T02:20:05;99792.16;;;12.00;82.94
13486;BME280;6815;59.336;17.998;2022-07-15T02:22:30;99815.22;;;12.20;82.73
13486;BME280;6815;59.336;17.998;2022-07-15T02:24:56;99805.47;;;12.22;82.30
13486;BME280;6815;59.336;17.998;2022-07-15T02:27:21;99783.31;;;12.25;81.60
13486;BME280;6815;59.336;17.998;2022-07-15T02:29:47;99805.28;;;12.27;81.42
13486;BME280;6815;59.336;17.998;2022-07-15T02:32:12;99822.06;;;12.26;81.74
13486;BME280;6815;59.336;17.998;2022-07-15T02:34:37;99791.88;;;12.08;82.21
13486;BME280;6815;59.336;17.998;2022-07-15T02:37:03;99814.22;;;11.99;84.69
13486;BME280;6815;59.336;17.998;2022-07-15T02:39:28;99811.56;;;11.99;84.25
13486;BME280;6815;59.336;17.998;2022-07-15T02:41:53;99760.56;;;11.97;84.45
13486;BME280;6815;59.336;17.998;2022-07-15T02:44:19;99801.38;;;12.37;83.91
13486;BME280;6815;59.336;17.998;2022-07-15T02:46:44;99795.91;;;12.42;83.02
13486;BME280;6815;59.336;17.998;2022-07-15T02:49:10;99818.44;;;12.05;85.54
13486;BME280;6815;59.336;17.998;2022-07-15T02:51:36;99806.69;;;12.12;85.23
13486;BME280;6815;59.336;17.998;2022-07-15T02:54:01;99768.47;;;11.72;84.64
13486;BME280;6815;59.336;17.998;2022-07-15T02:56:28;99812.28;;;12.04;83.41
13486;BME280;6815;59.336;17.998;2022-07-15T02:58:53;99810.06;;;12.17;81.52
13486;BME280;6815;59.336;17.998;2022-07-15T03:01:22;99798.88;;;11.86;80.90
13486;BME280;6815;59.336;17.998;2022-07-15T03:03:47;99813.84;;;12.10;80.02
13486;BME280;6815;59.336;17.998;2022-07-15T03:06:13;99821.03;;;12.07;80.44
13486;BME280;6815;59.336;17.998;2022-07-15T03:08:39;99808.78;;;12.04;79.43
13486;BME280;6815;59.336;17.998;2022-07-15T03:11:06;99824.00;;;12.21;78.41
13486;BME280;6815;59.336;17.998;2022-07-15T03:13:31;99815.97;;;12.00;76.83
13486;BME280;6815;59.336;17.998;2022-07-15T03:15:57;99785.31;;;11.95;77.02
13486;BME280;6815;59.336;17.998;2022-07-15T03:18:22;99829.22;;;11.99;77.00
13486;BME280;6815;59.336;17.998;2022-07-15T03:20:47;99800.88;;;12.02;76.78
13486;BME280;6815;59.336;17.998;2022-07-15T03:23:13;99822.00;;;12.04;76.47
13486;BME280;6815;59.336;17.998;2022-07-15T03:25:39;99819.94;;;11.87;75.77
13486;BME280;6815;59.336;17.998;2022-07-15T03:28:04;99814.06;;;11.77;75.97
13486;BME280;6815;59.336;17.998;2022-07-15T03:30:30;99831.84;;;11.99;75.95
13486;BME280;6815;59.336;17.998;2022-07-15T03:32:55;99822.22;;;11.98;75.11
13486;BME280;6815;59.336;17.998;2022-07-15T03:35:22;99798.66;;;11.65;76.43
13486;BME280;6815;59.336;17.998;2022-07-15T03:37:48;99848.56;;;12.24;75.43
13486;BME280;6815;59.336;17.998;2022-07-15T03:40:13;99847.94;;;11.93;75.57
13486;BME280;6815;59.336;17.998;2022-07-15T03:42:39;99813.72;;;11.63;76.22
13486;BME280;6815;59.336;17.998;2022-07-15T03:45:04;99823.84;;;11.75;76.37
13486;BME280;6815;59.336;17.998;2022-07-15T03:47:30;99847.91;;;11.94;76.26
13486;BME280;6815;59.336;17.998;2022-07-15T03:49:55;99842.72;;;11.91;76.22
13486;BME280;6815;59.336;17.998;2022-07-15T03:52:21;99840.75;;;11.96;75.38
13486;BME280;6815;59.336;17.998;2022-07-15T03:54:46;99842.31;;;12.02;75.39
13486;BME280;6815;59.336;17.998;2022-07-15T03:57:12;99834.41;;;12.02;74.86
13486;BME280;6815;59.336;17.998;2022-07-15T03:59:37;99815.34;;;11.92;74.54
13486;BME280;6815;59.336;17.998;2022-07-15T04:02:02;99857.09;;;12.08;74.81
13486;BME280;6815;59.336;17.998;2022-07-15T04:04:28;99825.50;;;11.78;73.66
13486;BME280;6815;59.336;17.998;2022-07-15T04:06:53;99839.16;;;11.92;73.18
13486;BME280;6815;59.336;17.998;2022-07-15T04:09:19;99834.34;;;11.77;72.11
13486;BME280;6815;59.336;17.998;2022-07-15T04:11:44;99865.47;;;12.20;71.71
13486;BME280;6815;59.336;17.998;2022-07-15T04:14:14;99860.56;;;12.10;71.48
13486;BME280;6815;59.336;17.998;2022-07-15T04:16:41;99845.38;;;12.15;70.24
13486;BME280;6815;59.336;17.998;2022-07-15T04:19:06;99862.81;;;12.44;69.55
13486;BME280;6815;59.336;17.998;2022-07-15T04:21:31;99850.09;;;12.32;69.43
13486;BME280;6815;59.336;17.998;2022-07-15T04:23:58;99827.06;;;12.10;68.24
13486;BME280;6815;59.336;17.998;2022-07-15T04:26:23;99871.47;;;12.49;68.14
13486;BME280;6815;59.336;17.998;2022-07-15T04:28:50;99864.00;;;12.60;67.63
13486;BME280;6815;59.336;17.998;2022-07-15T04:31:15;99853.19;;;12.43;67.78
13486;BME280;6815;59.336;17.998;2022-07-15T04:33:40;99866.84;;;12.31;67.72
13486;BME280;6815;59.336;17.998;2022-07-15T04:36:06;99872.84;;;12.59;67.35
13486;BME280;6815;59.336;17.998;2022-07-15T04:38:32;99842.47;;;12.46;67.17
13486;BME280;6815;59.336;17.998;2022-07-15T04:40:57;99868.28;;;12.63;66.36
13486;BME280;6815;59.336;17.998;2022-07-15T04:43:23;99840.13;;;12.62;65.44
13486;BME280;6815;59.336;17.998;2022-07-15T04:45:49;99875.16;;;12.68;65.81
13486;BME280;6815;59.336;17.998;2022-07-15T04:48:15;99844.84;;;12.77;64.77
13486;BME280;6815;59.336;17.998;2022-07-15T04:51:00;99828.72;;;12.83;64.08
13486;BME280;6815;59.336;17.998;2022-07-15T04:53:26;99854.84;;;13.14;64.12
13486;BME280;6815;59.336;17.998;2022-07-15T04:55:52;99857.63;;;13.33;64.12
13486;BME280;6815;59.336;17.998;2022-07-15T04:58:17;99854.03;;;13.56;63.43
13486;BME280;6815;59.336;17.998;2022-07-15T05:00:44;99868.19;;;14.18;62.71
13486;BME280;6815;59.336;17.998;2022-07-15T05:03:11;99847.75;;;13.59;63.30
13486;BME280;6815;59.336;17.998;2022-07-15T05:05:37;99847.81;;;13.57;61.80
13486;BME280;6815;59.336;17.998;2022-07-15T05:08:03;99852.63;;;13.70;62.11
13486;BME280;6815;59.336;17.998;2022-07-15T05:10:29;99859.03;;;13.64;62.45
13486;BME280;6815;59.336;17.998;2022-07-15T05:12:54;99797.50;;;13.13;61.20
13486;BME280;6815;59.336;17.998;2022-07-15T05:15:20;99832.13;;;13.31;61.51
13486;BME280;6815;59.336;17.998;2022-07-15T05:17:45;99859.19;;;14.02;60.22
13486;BME280;6815;59.336;17.998;2022-07-15T05:20:11;99875.16;;;14.60;59.11
13486;BME280;6815;59.336;17.998;2022-07-15T05:22:36;99861.84;;;14.80;57.75
13486;BME280;6815;59.336;17.998;2022-07-15T05:25:02;99843.66;;;15.09;56.45
13486;BME280;6815;59.336;17.998;2022-07-15T05:27:28;99872.38;;;15.56;55.61
13486;BME280;6815;59.336;17.998;2022-07-15T05:29:53;99876.25;;;15.68;54.64
13486;BME280;6815;59.336;17.998;2022-07-15T05:32:18;99872.00;;;16.16;53.29
13486;BME280;6815;59.336;17.998;2022-07-15T05:34:44;99840.09;;;15.64;52.82
13486;BME280;6815;59.336;17.998;2022-07-15T05:37:09;99866.94;;;16.45;52.00
13486;BME280;6815;59.336;17.998;2022-07-15T05:39:35;99866.47;;;16.70;51.23
13486;BME280;6815;59.336;17.998;2022-07-15T05:42:01;99864.75;;;15.85;51.72
13486;BME280;6815;59.336;17.998;2022-07-15T05:44:26;99896.06;;;16.48;50.57
13486;BME280;6815;59.336;17.998;2022-07-15T05:46:52;99882.34;;;15.87;51.32
13486;BME280;6815;59.336;17.998;2022-07-15T05:49:18;99879.59;;;15.71;52.96
13486;BME280;6815;59.336;17.998;2022-07-15T05:51:43;99850.25;;;15.56;51.69
13486;BME280;6815;59.336;17.998;2022-07-15T05:54:10;99876.34;;;15.47;53.35
13486;BME280;6815;59.336;17.998;2022-07-15T05:56:39;99903.09;;;15.81;53.11
13486;BME280;6815;59.336;17.998;2022-07-15T05:59:05;99894.69;;;15.88;52.34
13486;BME280;6815;59.336;17.998;2022-07-15T06:01:31;99863.50;;;15.75;52.68
13486;BME280;6815;59.336;17.998;2022-07-15T06:03:56;99863.75;;;15.51;52.14
13486;BME280;6815;59.336;17.998;2022-07-15T06:06:22;99847.41;;;15.05;50.22
13486;BME280;6815;59.336;17.998;2022-07-15T06:08:47;99893.28;;;15.64;50.27
13486;BME280;6815;59.336;17.998;2022-07-15T06:11:12;99847.97;;;15.65;50.94
13486;BME280;6815;59.336;17.998;2022-07-15T06:13:44;99899.66;;;15.60;50.28
13486;BME280;6815;59.336;17.998;2022-07-15T06:16:09;99792.13;;;14.38;51.08
13486;BME280;6815;59.336;17.998;2022-07-15T06:18:34;99894.00;;;15.12;51.20
13486;BME280;6815;59.336;17.998;2022-07-15T06:21:00;99815.00;;;14.79;51.25
13486;BME280;6815;59.336;17.998;2022-07-15T06:23:26;99900.63;;;15.40;50.65
13486;BME280;6815;59.336;17.998;2022-07-15T06:25:52;99808.94;;;14.76;50.49
13486;BME280;6815;59.336;17.998;2022-07-15T06:28:21;99910.22;;;15.25;50.52
13486;BME280;6815;59.336;17.998;2022-07-15T06:30:46;99873.91;;;14.88;51.45
13486;BME280;6815;59.336;17.998;2022-07-15T06:33:12;99873.88;;;14.69;51.89
13486;BME280;6815;59.336;17.998;2022-07-15T06:35:37;99803.78;;;14.54;52.13
13486;BME280;6815;59.336;17.998;2022-07-15T06:38:02;99846.91;;;14.59;52.78
13486;BME280;6815;59.336;17.998;2022-07-15T06:40:28;99899.97;;;15.17;53.48
13486;BME280;6815;59.336;17.998;2022-07-15T06:42:54;99893.94;;;14.95;53.82
13486;BME280;6815;59.336;17.998;2022-07-15T06:45:19;99861.97;;;14.58;53.95
13486;BME280;6815;59.336;17.998;2022-07-15T06:47:45;99921.81;;;14.66;54.90
13486;BME280;6815;59.336;17.998;2022-07-15T06:50:11;99920.16;;;14.63;54.50
13486;BME280;6815;59.336;17.998;2022-07-15T06:52:36;99908.53;;;14.66;55.57
13486;BME280;6815;59.336;17.998;2022-07-15T06:55:03;99912.53;;;14.55;54.92
13486;BME280;6815;59.336;17.998;2022-07-15T06:57:32;99884.00;;;14.40;55.13
13486;BME280;6815;59.336;17.998;2022-07-15T07:00:00;99913.34;;;14.57;55.71
13486;BME280;6815;59.336;17.998;2022-07-15T07:02:26;99906.75;;;14.46;55.43
13486;BME280;6815;59.336;17.998;2022-07-15T07:04:51;99920.75;;;14.49;56.84
13486;BME280;6815;59.336;17.998;2022-07-15T07:07:16;99927.06;;;14.67;56.61
13486;BME280;6815;59.336;17.998;2022-07-15T07:09:42;99926.22;;;14.67;56.76
13486;BME280;6815;59.336;17.998;2022-07-15T07:12:08;99924.41;;;14.47;56.44
13486;BME280;6815;59.336;17.998;2022-07-15T07:14:34;99933.91;;;14.52;58.56
13486;BME280;6815;59.336;17.998;2022-07-15T07:17:00;99935.63;;;14.53;58.01
13486;BME280;6815;59.336;17.998;2022-07-15T07:19:25;99932.56;;;14.42;58.34
13486;BME280;6815;59.336;17.998;2022-07-15T07:21:51;99936.22;;;14.40;58.74
13486;BME280;6815;59.336;17.998;2022-07-15T07:24:16;99917.25;;;14.28;58.11
13486;BME280;6815;59.336;17.998;2022-07-15T07:26:42;99902.75;;;14.17;58.16
13486;BME280;6815;59.336;17.998;2022-07-15T07:29:08;99923.41;;;14.08;58.78
13486;BME280;6815;59.336;17.998;2022-07-15T07:31:35;99944.94;;;14.23;59.26
13486;BME280;6815;59.336;17.998;2022-07-15T07:34:00;99933.81;;;14.13;60.58
13486;BME280;6815;59.336;17.998;2022-07-15T07:36:26;99948.44;;;14.23;60.11
13486;BME280;6815;59.336;17.998;2022-07-15T07:38:52;99923.97;;;14.17;59.78
13486;BME280;6815;59.336;17.998;2022-07-15T07:41:18;99928.81;;;13.85;59.60
13486;BME280;6815;59.336;17.998;2022-07-15T07:43:43;99932.88;;;13.73;58.78
13486;BME280;6815;59.336;17.998;2022-07-15T07:46:10;99953.63;;;13.84;58.38
13486;BME280;6815;59.336;17.998;2022-07-15T07:48:38;99949.47;;;13.99;57.85
13486;BME280;6815;59.336;17.998;2022-07-15T07:51:04;99910.25;;;13.64;58.22
13486;BME280;6815;59.336;17.998;2022-07-15T07:53:31;99940.53;;;14.01;58.18
13486;BME280;6815;59.336;17.998;2022-07-15T07:55:56;99939.63;;;13.80;58.82
13486;BME280;6815;59.336;17.998;2022-07-15T07:58:23;99946.56;;;14.05;59.14
13486;BME280;6815;59.336;17.998;2022-07-15T08:00:49;99928.91;;;14.04;59.82
13486;BME280;6815;59.336;17.998;2022-07-15T08:03:16;99943.72;;;14.30;60.09
13486;BME280;6815;59.336;17.998;2022-07-15T08:05:42;99962.34;;;14.08;60.06
13486;BME280;6815;59.336;17.998;2022-07-15T08:08:20;99959.81;;;14.25;58.23
13486;BME280;6815;59.336;17.998;2022-07-15T08:10:50;99965.38;;;14.19;57.13
13486;BME280;6815;59.336;17.998;2022-07-15T08:13:17;99938.69;;;14.24;56.08
13486;BME280;6815;59.336;17.998;2022-07-15T08:15:43;99949.63;;;14.37;55.49
13486;BME280;6815;59.336;17.998;2022-07-15T08:18:08;99936.97;;;14.23;55.21
13486;BME280;6815;59.336;17.998;2022-07-15T08:20:34;99955.00;;;14.15;56.68
13486;BME280;6815;59.336;17.998;2022-07-15T08:23:01;99954.91;;;14.16;57.76
13486;BME280;6815;59.336;17.998;2022-07-15T08:25:28;99940.66;;;13.98;57.43
13486;BME280;6815;59.336;17.998;2022-07-15T08:27:54;99935.59;;;13.92;57.66
13486;BME280;6815;59.336;17.998;2022-07-15T08:30:20;99946.25;;;13.91;56.35
13486;BME280;6815;59.336;17.998;2022-07-15T08:32:46;99939.94;;;13.95;54.66
13486;BME280;6815;59.336;17.998;2022-07-15T08:35:11;99926.16;;;13.85;55.37
13486;BME280;6815;59.336;17.998;2022-07-15T08:37:37;99963.41;;;14.24;54.65
13486;BME280;6815;59.336;17.998;2022-07-15T08:40:04;99949.72;;;14.13;54.15
13486;BME280;6815;59.336;17.998;2022-07-15T08:42:31;99955.28;;;14.07;54.12
13486;BME280;6815;59.336;17.998;2022-07-15T08:44:56;99961.13;;;13.95;54.94
13486;BME280;6815;59.336;17.998;2022-07-15T08:47:23;99944.91;;;14.02;54.21
13486;BME280;6815;59.336;17.998;2022-07-15T08:49:55;99979.19;;;14.27;55.13
13486;BME280;6815;59.336;17.998;2022-07-15T08:52:22;99949.97;;;13.86;56.30
13486;BME280;6815;59.336;17.998;2022-07-15T08:54:48;99975.19;;;13.97;56.68
13486;BME280;6815;59.336;17.998;2022-07-15T08:57:14;99965.81;;;13.88;57.06
13486;BME280;6815;59.336;17.998;2022-07-15T08:59:40;99966.25;;;13.99;57.11
13486;BME280;6815;59.336;17.998;2022-07-15T09:02:08;99954.28;;;13.89;57.68
13486;BME280;6815;59.336;17.998;2022-07-15T09:13:30;99977.75;;;14.20;54.17
13486;BME280;6815;59.336;17.998;2022-07-15T09:16:03;99968.16;;;13.96;53.65
13486;BME280;6815;59.336;17.998;2022-07-15T09:18:48;99949.00;;;14.09;54.33
13486;BME280;6815;59.336;17.998;2022-07-15T09:21:17;99968.97;;;14.18;55.23
13486;BME280;6815;59.336;17.998;2022-07-15T09:23:43;99952.13;;;13.99;55.96
13486;BME280;6815;59.336;17.998;2022-07-15T09:26:41;99976.72;;;14.02;56.69
13486;BME280;6815;59.336;17.998;2022-07-15T09:29:06;99965.94;;;13.85;55.67
13486;BME280;6815;59.336;17.998;2022-07-15T09:31:56;99953.63;;;13.84;55.37
13486;BME280;6815;59.336;17.998;2022-07-15T09:35:02;99970.59;;;14.00;55.64
13486;BME280;6815;59.336;17.998;2022-07-15T09:37:30;99970.69;;;13.99;54.17
13486;BME280;6815;59.336;17.998;2022-07-15T09:40:00;99948.63;;;13.98;55.54
13486;BME280;6815;59.336;17.998;2022-07-15T09:42:26;99985.28;;;14.09;56.44
13486;BME280;6815;59.336;17.998;2022-07-15T09:44:51;99952.75;;;14.26;55.42
13486;BME280;6815;59.336;17.998;2022-07-15T09:47:18;99932.81;;;13.95;55.08
13486;BME280;6815;59.336;17.998;2022-07-15T09:49:45;99958.22;;;14.21;55.57
13486;BME280;6815;59.336;17.998;2022-07-15T09:52:13;99985.97;;;14.34;55.36
13486;BME280;6815;59.336;17.998;2022-07-15T09:54:46;99978.41;;;14.46;54.45
13486;BME280;6815;59.336;17.998;2022-07-15T09:57:15;99940.44;;;14.03;54.34
13486;BME280;6815;59.336;17.998;2022-07-15T09:59:46;99998.16;;;14.18;55.41
13486;BME280;6815;59.336;17.998;2022-07-15T10:02:15;99985.81;;;14.38;54.57
13486;BME280;6815;59.336;17.998;2022-07-15T10:04:41;99992.06;;;14.37;53.97
13486;BME280;6815;59.336;17.998;2022-07-15T10:07:08;99969.13;;;14.56;53.96
13486;BME280;6815;59.336;17.998;2022-07-15T10:09:37;99976.28;;;14.33;53.95
13486;BME280;6815;59.336;17.998;2022-07-15T10:12:07;99995.69;;;14.56;52.68
13486;BME280;6815;59.336;17.998;2022-07-15T10:14:58;100001.03;;;14.75;53.25
13486;BME280;6815;59.336;17.998;2022-07-15T10:28:44;99967.25;;;14.17;53.22
13486;BME280;6815;59.336;17.998;2022-07-15T10:31:19;99990.81;;;14.45;53.13
13486;BME280;6815;59.336;17.998;2022-07-15T10:39:21;99970.94;;;14.55;52.91
13486;BME280;6815;59.336;17.998;2022-07-15T10:41:57;99996.44;;;14.38;52.14
13486;BME280;6815;59.336;17.998;2022-07-15T10:44:28;99990.81;;;14.45;52.51
13486;BME280;6815;59.336;17.998;2022-07-15T10:47:26;99994.66;;;14.38;52.66
13486;BME280;6815;59.336;17.998;2022-07-15T10:49:54;99988.78;;;14.52;51.81
13486;BME280;6815;59.336;17.998;2022-07-15T10:52:20;99993.13;;;14.54;51.57
13486;BME280;6815;59.336;17.998;2022-07-15T10:57:13;99986.06;;;14.53;52.02
13486;BME280;6815;59.336;17.998;2022-07-15T10:59:53;99988.16;;;14.45;54.64
13486;BME280;6815;59.336;17.998;2022-07-15T11:02:24;99990.63;;;14.29;53.31
13486;BME280;6815;59.336;17.998;2022-07-15T11:04:51;99967.22;;;14.39;53.68
13486;BME280;6815;59.336;17.998;2022-07-15T11:12:14;99972.84;;;14.72;52.36
13486;BME280;6815;59.336;17.998;2022-07-15T11:17:18;99984.66;;;14.86;51.35
13486;BME280;6815;59.336;17.998;2022-07-15T11:19:49;99958.69;;;14.72;51.18
13486;BME280;6815;59.336;17.998;2022-07-15T11:22:19;99979.63;;;14.79;51.64
13486;BME280;6815;59.336;17.998;2022-07-15T11:24:46;99971.84;;;14.75;52.09
13486;BME280;6815;59.336;17.998;2022-07-15T11:27:11;99953.03;;;14.61;51.74
13486;BME280;6815;59.336;17.998;2022-07-15T11:29:42;99899.94;;;14.40;52.88
13486;BME280;6815;59.336;17.998;2022-07-15T11:32:08;99973.56;;;14.76;52.91
13486;BME280;6815;59.336;17.998;2022-07-15T11:34:45;99996.31;;;14.81;52.63
13486;BME280;6815;59.336;17.998;2022-07-15T11:37:11;99991.81;;;14.84;52.59
13486;BME280;6815;59.336;17.998;2022-07-15T11:39:38;99973.38;;;14.40;48.27
13486;BME280;6815;59.336;17.998;2022-07-15T11:42:04;99978.22;;;14.30;48.69
13486;BME280;6815;59.336;17.998;2022-07-15T11:44:49;100009.09;;;14.31;50.00
13486;BME280;6815;59.336;17.998;2022-07-15T11:47:16;99990.63;;;14.29;54.06
13486;BME280;6815;59.336;17.998;2022-07-15T11:49:42;99996.69;;;14.31;55.60
13486;BME280;6815;59.336;17.998;2022-07-15T11:52:22;99982.03;;;14.02;55.55
13486;BME280;6815;59.336;17.998;2022-07-15T11:54:48;100019.72;;;14.31;56.04
13486;BME280;6815;59.336;17.998;2022-07-15T11:57:14;99991.78;;;14.02;55.47
13486;BME280;6815;59.336;17.998;2022-07-15T11:59:40;99989.50;;;13.93;56.08
13486;BME280;6815;59.336;17.998;2022-07-15T12:02:08;100032.13;;;14.30;56.16
13486;BME280;6815;59.336;17.998;2022-07-15T12:04:34;100031.88;;;14.37;55.48
13486;BME280;6815;59.336;17.998;2022-07-15T12:06:59;100007.25;;;14.33;55.32
13486;BME280;6815;59.336;17.998;2022-07-15T12:09:26;100032.66;;;14.61;56.54
13486;BME280;6815;59.336;17.998;2022-07-15T12:11:51;99983.91;;;14.21;56.24
13486;BME280;6815;59.336;17.998;2022-07-15T12:14:21;99993.66;;;14.20;58.14
13486;BME280;6815;59.336;17.998;2022-07-15T12:16:54;100007.91;;;14.38;55.60
13486;BME280;6815;59.336;17.998;2022-07-15T12:19:22;100008.72;;;14.40;55.35
13486;BME280;6815;59.336;17.998;2022-07-15T12:21:51;99983.31;;;14.34;55.16
13486;BME280;6815;59.336;17.998;2022-07-15T12:24:21;100020.78;;;14.47;56.01
13486;BME280;6815;59.336;17.998;2022-07-15T12:29:26;100021.38;;;14.55;54.75
13486;BME280;6815;59.336;17.998;2022-07-15T12:31:54;100026.66;;;14.76;53.28
13486;BME280;6815;59.336;17.998;2022-07-15T12:34:21;100012.53;;;14.75;55.35
13486;BME280;6815;59.336;17.998;2022-07-15T12:36:58;100001.66;;;14.61;53.77
13486;BME280;6815;59.336;17.998;2022-07-15T12:39:24;100036.19;;;14.39;54.77
13486;BME280;6815;59.336;17.998;2022-07-15T12:42:03;100041.53;;;14.17;55.80
13486;BME280;6815;59.336;17.998;2022-07-15T12:44:31;100042.41;;;14.38;55.17
13486;BME280;6815;59.336;17.998;2022-07-15T12:47:03;100042.03;;;14.47;54.66
13486;BME280;6815;59.336;17.998;2022-07-15T12:49:48;100046.47;;;14.26;53.85
13486;BME280;6815;59.336;17.998;2022-07-15T12:55:00;100013.63;;;14.49;52.78
13486;BME280;6815;59.336;17.998;2022-07-15T12:57:36;100034.88;;;14.49;53.85
13486;BME280;6815;59.336;17.998;2022-07-15T13:00:06;100042.50;;;14.37;50.51
13486;BME280;6815;59.336;17.998;2022-07-15T13:03:09;100038.97;;;14.36;49.88
13486;BME280;6815;59.336;17.998;2022-07-15T13:05:40;100027.41;;;14.17;50.49
13486;BME280;6815;59.336;17.998;2022-07-15T13:08:10;99979.44;;;14.01;51.11
13486;BME280;6815;59.336;17.998;2022-07-15T13:10:37;100033.41;;;14.42;50.77
13486;BME280;6815;59.336;17.998;2022-07-15T13:13:04;100009.25;;;14.28;50.94
13486;BME280;6815;59.336;17.998;2022-07-15T13:15:30;100024.63;;;14.40;51.31
13486;BME280;6815;59.336;17.998;2022-07-15T13:17:56;100032.28;;;14.48;52.37
13486;BME280;6815;59.336;17.998;2022-07-15T13:20:22;100034.56;;;14.57;52.03
13486;BME280;6815;59.336;17.998;2022-07-15T13:22:49;99994.50;;;14.41;53.26
13486;BME280;6815;59.336;17.998;2022-07-15T13:25:14;100016.28;;;14.49;51.45
13486;BME280;6815;59.336;17.998;2022-07-15T13:27:41;100036.91;;;14.65;50.13
13486;BME280;6815;59.336;17.998;2022-07-15T13:30:07;100032.06;;;14.74;51.18
13486;BME280;6815;59.336;17.998;2022-07-15T13:32:33;100017.50;;;14.83;51.03
13486;BME280;6815;59.336;17.998;2022-07-15T13:34:58;100014.31;;;14.75;51.47
13486;BME280;6815;59.336;17.998;2022-07-15T13:37:24;100027.88;;;14.89;51.60
13486;BME280;6815;59.336;17.998;2022-07-15T13:39:50;100032.22;;;15.11;51.80
13486;BME280;6815;59.336;17.998;2022-07-15T13:42:16;99949.13;;;14.47;51.50